Time;durP1;ratioP1;P1;durP2;ratioP2;P2;SDS_P1;SDS_P2;PMS_P1;PMS_P2;Temp;Humidity;BMP_temperature;BMP_pressure;BME280_temperature;BME280_humidity;BME280_pressure;Samples;Min_cycle;Max_cycle;Signal;HPM_P1;HPM_P2
2022/08/09 00:00:58;;;;;;;3.30;3.10;;;26.90;56.00;;;;;;5083277;28;20446;-68
2022/08/09 00:03:28;;;;;;;3.50;3.30;;;26.70;56.00;;;;;;5075253;28;20533;-69
2022/08/09 00:06:16;;;;;;;4.13;3.87;;;26.90;56.10;;;;;;5073741;28;20486;-69
2022/08/09 00:08:50;;;;;;;4.10;3.90;;;26.90;55.30;;;;;;5079053;28;20488;-68
2022/08/09 00:11:21;;;;;;;3.97;3.67;;;26.70;55.80;;;;;;5077630;28;20532;-68
2022/08/09 00:13:55;;;;;;;4.40;4.10;;;26.70;55.40;;;;;;5079721;28;20461;-68
2022/08/09 00:16:23;;;;;;;3.33;3.13;;;26.60;55.60;;;;;;5082722;28;20445;-68
2022/08/09 00:19:06;;;;;;;3.80;3.50;;;26.60;56.80;;;;;;5078668;28;20470;-68
2022/08/09 00:21:38;;;;;;;4.47;3.37;;;26.60;55.60;;;;;;5078982;28;20465;-68
2022/08/09 00:24:23;;;;;;;3.90;3.60;;;26.60;57.50;;;;;;5071604;28;20460;-69
2022/08/09 00:26:54;;;;;;;4.23;3.93;;;26.70;55.50;;;;;;5078974;28;20452;-68
2022/08/09 00:29:29;;;;;;;3.60;3.40;;;26.70;55.70;;;;;;5079615;28;20464;-68
2022/08/09 00:32:17;;;;;;;3.30;3.10;;;26.80;55.80;;;;;;5083881;28;20948;-68
2022/08/09 00:34:55;;;;;;;4.00;3.70;;;26.80;55.50;;;;;;5062063;28;20978;-68
2022/08/09 00:37:24;;;;;;;3.67;3.43;;;26.80;55.90;;;;;;5083414;28;20441;-68
2022/08/09 00:39:52;;;;;;;4.03;3.73;;;26.80;56.20;;;;;;5082567;28;20502;-68
2022/08/09 00:42:41;;;;;;;4.27;3.97;;;26.80;56.00;;;;;;5087697;28;20456;-69
2022/08/09 00:45:31;;;;;;;3.60;3.40;;;26.70;56.00;;;;;;5083644;28;20535;-68
2022/08/09 00:48:02;;;;;;;3.50;3.30;;;26.60;56.20;;;;;;5083052;28;20453;-68
2022/08/09 00:50:31;;;;;;;3.57;3.37;;;26.60;55.50;;;;;;5084341;28;20478;-69
2022/08/09 00:52:59;;;;;;;4.17;3.90;;;26.60;55.70;;;;;;5082366;28;20478;-68
2022/08/09 00:55:38;;;;;;;3.53;3.30;;;26.60;55.70;;;;;;5075809;28;20462;-69
2022/08/09 00:58:27;;;;;;;3.63;3.43;;;26.50;55.80;;;;;;5080939;28;20873;-68
2022/08/09 01:01:00;;;;;;;3.93;3.73;;;26.60;57.20;;;;;;5081188;28;20442;-68
2022/08/09 01:03:40;;;;;;;3.63;3.33;;;26.50;55.90;;;;;;5082655;28;20477;-69
2022/08/09 01:06:29;;;;;;;3.20;3.00;;;26.50;55.90;;;;;;5076859;28;20538;-68
2022/08/09 01:09:25;;;;;;;3.20;3.00;;;26.50;56.90;;;;;;5084477;28;20582;-68
2022/08/09 01:12:12;;;;;;;3.33;3.03;;;26.70;57.60;;;;;;5051155;28;21076;-68
2022/08/09 01:14:55;;;;;;;3.33;3.13;;;26.80;56.10;;;;;;5077611;28;20445;-69
2022/08/09 01:17:30;;;;;;;3.40;3.20;;;26.90;56.50;;;;;;5079738;28;20950;-68
2022/08/09 01:20:05;;;;;;;3.03;2.83;;;27.00;55.80;;;;;;5080778;28;20479;-69
2022/08/09 01:22:54;;;;;;;3.97;3.70;;;27.10;55.70;;;;;;5083701;28;20472;-68
2022/08/09 01:25:41;;;;;;;2.97;2.70;;;27.20;56.10;;;;;;5079484;28;20546;-68
2022/08/09 01:28:21;;;;;;;3.30;3.10;;;27.40;56.80;;;;;;5079199;28;20945;-68
2022/08/09 01:30:56;;;;;;;2.90;2.80;;;27.60;56.50;;;;;;5082608;28;20447;-68
2022/08/09 01:33:29;;;;;;;2.93;2.83;;;27.70;56.10;;;;;;5081745;28;20456;-69
2022/08/09 01:36:03;;;;;;;4.77;4.47;;;27.80;56.00;;;;;;5079658;28;20466;-68
2022/08/09 01:38:35;;;;;;;2.80;2.70;;;27.80;56.40;;;;;;5085535;28;20525;-69
2022/08/09 01:41:27;;;;;;;4.33;4.13;;;27.80;56.00;;;;;;5079512;28;20931;-69
2022/08/09 01:44:00;;;;;;;4.17;3.87;;;27.70;55.30;;;;;;5083633;28;20451;-69
2022/08/09 01:46:31;;;;;;;4.40;4.13;;;27.70;55.20;;;;;;5086039;28;20969;-68
2022/08/09 01:49:05;;;;;;;4.27;4.07;;;27.40;55.30;;;;;;5084970;28;20438;-69
2022/08/09 01:51:43;;;;;;;3.23;3.03;;;27.10;55.80;;;;;;5079793;28;20487;-69
2022/08/09 01:54:25;;;;;;;3.87;3.67;;;27.00;56.70;;;;;;5079886;28;20445;-69
2022/08/09 01:57:00;;;;;;;4.50;4.20;;;26.80;56.20;;;;;;5086261;28;20497;-69
2022/08/09 01:59:33;;;;;;;4.80;4.10;;;26.50;56.00;;;;;;5078739;28;20470;-69
2022/08/09 02:02:20;;;;;;;4.30;4.10;;;26.30;56.30;;;;;;5081492;28;20457;-69
2022/08/09 02:04:50;;;;;;;4.30;4.00;;;26.30;56.40;;;;;;5075923;28;20895;-69
2022/08/09 02:07:23;;;;;;;3.40;3.20;;;26.20;57.20;;;;;;5077401;28;20484;-69
2022/08/09 02:10:15;;;;;;;3.43;3.23;;;26.20;57.60;;;;;;5074138;28;20535;-69
2022/08/09 02:12:46;;;;;;;4.60;4.30;;;26.30;57.10;;;;;;5076466;28;20536;-68
2022/08/09 02:15:20;;;;;;;3.30;3.10;;;26.50;56.80;;;;;;5080444;28;20450;-69
2022/08/09 02:17:54;;;;;;;3.60;3.40;;;26.60;57.30;;;;;;5087090;28;20879;-69
2022/08/09 02:20:40;;;;;;;3.23;3.03;;;26.80;57.20;;;;;;5086386;28;20473;-69
2022/08/09 02:23:14;;;;;;;3.60;3.40;;;27.00;57.30;;;;;;5080554;28;20459;-69
2022/08/09 02:25:47;;;;;;;3.30;3.10;;;27.20;56.80;;;;;;5079943;28;20941;-69
2022/08/09 02:28:34;;;;;;;3.17;3.07;;;27.40;56.40;;;;;;5083265;28;20435;-69
2022/08/09 02:33:56;;;;;;;3.10;2.90;;;27.70;56.20;;;;;;5079675;28;20535;-69
2022/08/09 02:36:40;;;;;;;3.10;2.90;;;27.80;55.90;;;;;;5079494;28;20447;-69
2022/08/09 02:39:15;;;;;;;3.27;3.07;;;27.90;54.90;;;;;;5078207;28;21096;-68
2022/08/09 02:42:04;;;;;;;4.00;3.70;;;28.00;55.40;;;;;;5086149;28;20450;-69
2022/08/09 02:44:37;;;;;;;5.20;4.70;;;28.00;54.90;;;;;;5079941;28;20449;-69
2022/08/09 02:47:11;;;;;;;4.70;4.50;;;28.00;53.50;;;;;;5082983;28;20493;-69
2022/08/09 02:49:45;;;;;;;3.37;3.27;;;27.80;53.00;;;;;;5078242;28;20460;-69
2022/08/09 02:52:29;;;;;;;4.33;4.03;;;27.80;55.10;;;;;;5076559;28;20464;-69
2022/08/09 02:55:03;;;;;;;5.20;3.93;;;27.80;54.70;;;;;;5081200;28;20440;-69
2022/08/09 02:57:50;;;;;;;3.60;3.40;;;27.60;53.70;;;;;;5077779;28;20468;-69
2022/08/09 03:00:39;;;;;;;6.47;4.07;;;27.50;55.10;;;;;;5083889;28;20482;-68
2022/08/09 03:03:28;;;;;;;4.10;3.80;;;27.50;53.60;;;;;;5079070;28;20787;-68
2022/08/09 03:06:26;;;;;;;3.53;3.33;;;27.50;55.30;;;;;;5079992;28;20833;-69
2022/08/09 03:08:57;;;;;;;3.60;3.30;;;27.30;54.90;;;;;;5076962;28;20504;-69
2022/08/09 03:11:35;;;;;;;4.23;4.03;;;27.30;54.60;;;;;;5079687;28;20921;-69
2022/08/09 03:14:24;;;;;;;3.60;3.30;;;27.30;54.20;;;;;;5082031;28;20547;-68
2022/08/09 03:16:57;;;;;;;4.20;4.00;;;27.30;54.90;;;;;;5081854;28;20445;-68
2022/08/09 03:19:29;;;;;;;4.60;4.30;;;27.30;55.20;;;;;;5080647;28;20447;-69
2022/08/09 03:22:19;;;;;;;5.23;4.93;;;27.30;54.80;;;;;;5079598;28;20451;-68
2022/08/09 03:24:58;;;;;;;3.90;3.70;;;27.30;54.50;;;;;;5075166;28;20458;-68
2022/08/09 03:27:51;;;;;;;5.70;5.30;;;27.10;55.10;;;;;;5076954;28;20476;-68
2022/08/09 03:30:23;;;;;;;5.33;4.93;;;26.90;54.60;;;;;;5075005;28;20453;-68
2022/08/09 03:33:02;;;;;;;5.00;4.70;;;26.80;55.30;;;;;;5072745;28;20433;-68
2022/08/09 03:35:45;;;;;;;5.13;4.73;;;26.60;55.30;;;;;;5054310;28;20765;-68
2022/08/09 03:38:34;;;;;;;5.03;4.73;;;26.30;55.70;;;;;;5071586;28;20478;-69
2022/08/09 03:41:04;;;;;;;4.53;4.20;;;26.40;55.60;;;;;;5071205;28;20557;-69
2022/08/09 03:43:32;;;;;;;3.97;3.77;;;26.40;56.70;;;;;;5072291;28;21030;-68
2022/08/09 03:46:03;;;;;;;4.47;4.17;;;26.40;55.90;;;;;;5070663;28;20468;-68
2022/08/09 03:49:18;;;;;;;4.10;3.90;;;26.60;57.30;;;;;;5069001;28;20442;-68
2022/08/09 03:51:56;;;;;;;4.37;4.07;;;26.80;56.40;;;;;;5061692;28;20482;-68
2022/08/09 03:54:31;;;;;;;3.37;3.23;;;27.00;55.90;;;;;;5054795;28;21005;-68
2022/08/09 03:57:05;;;;;;;3.93;3.63;;;27.10;56.60;;;;;;5071889;28;20452;-68
2022/08/09 03:59:49;;;;;;;4.93;4.60;;;27.20;54.70;;;;;;5071540;28;20459;-68
2022/08/09 04:02:25;;;;;;;3.97;3.67;;;27.20;54.90;;;;;;5068454;28;20461;-69
2022/08/09 04:04:57;;;;;;;3.80;3.60;;;27.30;54.50;;;;;;5076321;28;20450;-69
2022/08/09 04:07:30;;;;;;;3.63;3.43;;;27.30;55.30;;;;;;5078721;28;20445;-69
2022/08/09 04:10:21;;;;;;;4.77;4.37;;;27.30;54.40;;;;;;5070338;28;20468;-69
2022/08/09 04:12:59;;;;;;;3.90;3.70;;;27.20;53.90;;;;;;5077504;28;20457;-68
2022/08/09 04:15:31;;;;;;;3.20;3.10;;;27.20;55.00;;;;;;5070006;28;20550;-68
2022/08/09 04:18:19;;;;;;;4.40;4.10;;;27.20;55.30;;;;;;5071458;28;20459;-69
2022/08/09 04:20:49;;;;;;;4.67;3.80;;;27.30;56.20;;;;;;5070939;28;20477;-69
2022/08/09 04:23:20;;;;;;;3.80;3.50;;;27.50;56.20;;;;;;5050898;28;20528;-69
2022/08/09 04:25:53;;;;;;;4.13;3.90;;;27.60;55.50;;;;;;5082612;28;20789;-69
2022/08/09 04:28:22;;;;;;;4.00;3.80;;;27.60;54.60;;;;;;5082251;28;20453;-69
2022/08/09 04:31:03;;;;;;;4.40;3.97;;;27.70;55.40;;;;;;5074526;28;20501;-69
2022/08/09 04:33:51;;;;;;;3.50;3.30;;;27.70;53.10;;;;;;5051285;28;20470;-69
2022/08/09 04:36:38;;;;;;;4.00;3.80;;;27.70;53.70;;;;;;5066255;28;20792;-69
2022/08/09 04:39:18;;;;;;;4.03;3.17;;;27.70;53.70;;;;;;5064544;28;20453;-68
2022/08/09 04:41:47;;;;;;;3.80;3.60;;;27.80;55.30;;;;;;5065914;28;20483;-69
2022/08/09 04:44:16;;;;;;;3.73;3.53;;;27.90;54.00;;;;;;5070367;28;20448;-69
2022/08/09 04:46:44;;;;;;;3.10;3.00;;;27.90;53.50;;;;;;5070706;28;20998;-68
2022/08/09 04:49:32;;;;;;;3.93;3.60;;;27.90;52.50;;;;;;5056196;28;20461;-69
2022/08/09 04:52:20;;;;;;;3.10;3.00;;;27.90;53.80;;;;;;5070733;28;20483;-68
2022/08/09 04:54:58;;;;;;;3.90;3.53;;;27.90;53.30;;;;;;5070850;28;20539;-69
2022/08/09 04:57:27;;;;;;;3.40;3.20;;;27.90;54.00;;;;;;5090760;28;20445;-69
2022/08/09 05:00:15;;;;;;;3.90;3.70;;;28.00;53.50;;;;;;5090639;28;20443;-69
2022/08/09 05:02:44;;;;;;;3.00;2.90;;;27.90;54.20;;;;;;5071393;28;20508;-69
2022/08/09 05:05:19;;;;;;;3.50;3.30;;;28.00;52.80;;;;;;5084327;28;20529;-69
2022/08/09 05:08:07;;;;;;;3.70;3.33;;;28.00;54.10;;;;;;5078739;28;21106;-69
2022/08/09 05:10:37;;;;;;;3.20;2.97;;;28.10;52.10;;;;;;5074837;28;20483;-69
2022/08/09 05:13:05;;;;;;;3.67;3.47;;;28.00;54.40;;;;;;5073269;28;20486;-69
2022/08/09 05:15:38;;;;;;;3.40;3.20;;;28.10;53.60;;;;;;5070158;28;20461;-69
2022/08/09 05:18:15;;;;;;;3.67;3.37;;;28.00;52.70;;;;;;5071640;28;20473;-69
2022/08/09 05:21:03;;;;;;;3.30;3.20;;;28.10;53.30;;;;;;5071351;28;20477;-69
2022/08/09 05:23:50;;;;;;;3.27;3.07;;;28.00;52.30;;;;;;5073687;28;20520;-69
2022/08/09 05:26:52;;;;;;;3.10;2.90;;;27.90;53.60;;;;;;5074219;28;20550;-70
2022/08/09 05:29:21;;;;;;;4.17;3.87;;;27.90;53.90;;;;;;5069016;28;20471;-69
2022/08/09 05:31:59;;;;;;;4.40;4.07;;;27.90;51.60;;;;;;5066849;28;20557;-69
2022/08/09 05:34:28;;;;;;;3.53;3.33;;;27.60;51.00;;;;;;5069926;28;20862;-68
2022/08/09 05:37:01;;;;;;;4.73;4.20;;;27.20;51.40;;;;;;5084610;28;20464;-68
2022/08/09 05:39:33;;;;;;;5.00;4.63;;;26.60;52.40;;;;;;5088228;28;20441;-69
2022/08/09 05:42:13;;;;;;;4.40;4.10;;;26.20;52.90;;;;;;5067420;28;20478;-69
2022/08/09 05:44:49;;;;;;;4.77;4.37;;;26.00;53.20;;;;;;5071136;28;20541;-69
2022/08/09 05:47:19;;;;;;;4.67;4.10;;;25.70;53.80;;;;;;5073562;28;20435;-69
2022/08/09 05:49:50;;;;;;;3.53;3.33;;;25.40;54.20;;;;;;5074972;28;20461;-69
2022/08/09 05:52:39;;;;;;;3.50;3.20;;;25.10;55.20;;;;;;5081430;28;20827;-69
2022/08/09 05:55:09;;;;;;;3.70;3.40;;;25.30;57.10;;;;;;5070746;28;20924;-68
2022/08/09 05:57:50;;;;;;;6.10;4.50;;;25.50;57.90;;;;;;5072972;28;20949;-69
2022/08/09 06:00:25;;;;;;;11.57;4.10;;;25.80;58.70;;;;;;5071038;28;20452;-69
2022/08/09 06:02:56;;;;;;;6.40;4.67;;;26.20;59.50;;;;;;5072878;28;20478;-69
2022/08/09 06:05:26;;;;;;;5.37;3.70;;;26.50;58.70;;;;;;5081114;28;20476;-69
2022/08/09 06:08:14;;;;;;;4.77;4.20;;;26.70;58.10;;;;;;5072021;28;20516;-69
2022/08/09 06:10:52;;;;;;;5.97;4.47;;;27.00;57.90;;;;;;5065384;28;20573;-69
2022/08/09 06:13:22;;;;;;;5.17;4.43;;;27.20;57.30;;;;;;5072574;28;20537;-68
2022/08/09 06:15:51;;;;;;;5.13;4.37;;;27.30;56.80;;;;;;5071802;28;20504;-68
2022/08/09 06:18:22;;;;;;;11.33;5.03;;;27.30;56.90;;;;;;5071147;28;20854;-68
2022/08/09 06:20:53;;;;;;;9.43;5.13;;;27.40;57.80;;;;;;5091701;28;20850;-68
2022/08/09 06:23:26;;;;;;;9.30;5.37;;;27.40;57.60;;;;;;5088382;28;20827;-69
2022/08/09 06:26:21;;;;;;;10.17;3.17;;;27.50;57.90;;;;;;5071666;28;20455;-69
2022/08/09 06:28:57;;;;;;;4.73;4.33;;;27.60;56.50;;;;;;5073007;28;20463;-69
2022/08/09 06:31:32;;;;;;;7.23;4.90;;;27.60;56.90;;;;;;5073170;28;20457;-67
2022/08/09 06:34:21;;;;;;;5.90;4.10;;;27.60;57.30;;;;;;5071008;28;20799;-66
2022/08/09 06:36:50;;;;;;;4.27;3.77;;;27.60;56.80;;;;;;5074016;28;20450;-66
2022/08/09 06:39:28;;;;;;;3.80;3.50;;;27.60;56.40;;;;;;5080799;28;20810;-65
2022/08/09 06:42:17;;;;;;;4.00;3.43;;;27.60;56.40;;;;;;5078213;28;20476;-65
2022/08/09 06:44:48;;;;;;;4.33;3.77;;;27.60;56.40;;;;;;5085214;28;20452;-65
2022/08/09 06:47:22;;;;;;;3.40;3.20;;;27.60;56.20;;;;;;5085386;28;20441;-65
2022/08/09 06:49:51;;;;;;;3.83;3.53;;;27.70;56.10;;;;;;5081944;28;20456;-66
2022/08/09 06:52:44;;;;;;;3.83;3.33;;;27.70;55.80;;;;;;5072267;28;20970;-66
2022/08/09 06:55:15;;;;;;;3.50;3.30;;;27.70;55.70;;;;;;5077198;28;20453;-66
2022/08/09 06:57:43;;;;;;;3.30;3.10;;;27.80;55.60;;;;;;5086641;28;20444;-66
2022/08/09 07:00:33;;;;;;;2.80;2.60;;;27.80;55.50;;;;;;5080937;28;21004;-66
2022/08/09 07:03:22;;;;;;;3.63;3.33;;;27.80;55.40;;;;;;5074604;28;20472;-66
2022/08/09 07:05:57;;;;;;;4.00;3.17;;;27.80;55.30;;;;;;5072405;28;20572;-66
2022/08/09 07:08:33;;;;;;;3.67;3.37;;;27.90;55.20;;;;;;5081459;28;20569;-65
2022/08/09 07:11:03;;;;;;;3.70;3.40;;;27.90;55.00;;;;;;5073092;28;20453;-65
2022/08/09 07:13:33;;;;;;;2.60;2.50;;;28.00;55.00;;;;;;5067050;28;20447;-65
2022/08/09 07:16:32;;;;;;;2.83;2.73;;;28.00;55.00;;;;;;5081767;28;20461;-66
2022/08/09 07:19:16;;;;;;;3.30;3.00;;;27.90;55.10;;;;;;5072607;28;20844;-65
2022/08/09 07:21:50;;;;;;;3.50;3.30;;;27.90;55.20;;;;;;5074181;28;21008;-69
2022/08/09 07:24:27;;;;;;;2.73;2.53;;;27.90;55.10;;;;;;5078160;28;20498;-71
2022/08/09 07:27:07;;;;;;;3.27;3.10;;;27.80;55.10;;;;;;5075934;28;20465;-69
2022/08/09 07:29:55;;;;;;;2.90;2.70;;;27.80;55.10;;;;;;5070468;28;20459;-70
2022/08/09 07:32:27;;;;;;;3.00;2.90;;;27.80;55.20;;;;;;5073879;28;20455;-70
2022/08/09 07:34:59;;;;;;;3.40;3.20;;;27.90;55.20;;;;;;5073660;28;20449;-69
2022/08/09 07:37:29;;;;;;;3.83;3.50;;;27.80;55.40;;;;;;5079985;28;20449;-68
2022/08/09 07:40:14;;;;;;;4.50;3.20;;;27.80;55.40;;;;;;5078769;28;20488;-71
2022/08/09 07:43:03;;;;;;;3.73;3.10;;;27.80;55.40;;;;;;5082713;28;20892;-69
2022/08/09 07:45:41;;;;;;;3.00;2.80;;;27.80;55.30;;;;;;5073866;28;20532;-70
2022/08/09 07:48:12;;;;;;;3.50;3.20;;;27.90;55.20;;;;;;5084532;28;20460;-70
2022/08/09 07:50:59;;;;;;;3.27;2.97;;;27.90;55.20;;;;;;5070655;28;20543;-69
2022/08/09 07:54:13;;;;;;;3.93;2.70;;;28.00;55.30;;;;;;5076261;28;20530;-71
2022/08/09 07:56:44;;;;;;;5.33;3.30;;;27.90;55.30;;;;;;5085517;28;20468;-70
2022/08/09 07:59:18;;;;;;;3.00;2.80;;;27.90;55.40;;;;;;5085719;28;20475;-70
2022/08/09 08:02:06;;;;;;;3.00;2.90;;;27.90;55.30;;;;;;5085435;28;20506;-70
2022/08/09 08:04:37;;;;;;;3.40;3.10;;;27.90;55.40;;;;;;5081145;28;20464;-70
2022/08/09 08:07:06;;;;;;;3.33;3.10;;;27.90;55.30;;;;;;5086816;28;20854;-69
2022/08/09 08:09:54;;;;;;;3.93;3.73;;;28.00;55.30;;;;;;5076123;28;21002;-69
2022/08/09 08:12:41;;;;;;;3.10;2.90;;;28.00;55.30;;;;;;5080662;28;20467;-70
2022/08/09 08:15:15;;;;;;;3.50;3.30;;;28.00;55.30;;;;;;5083499;28;20448;-69
2022/08/09 08:17:46;;;;;;;3.27;2.90;;;28.00;55.40;;;;;;5074160;28;20458;-69
2022/08/09 08:20:24;;;;;;;3.10;3.00;;;28.00;55.30;;;;;;5074807;28;20448;-70
2022/08/09 08:22:57;;;;;;;3.20;3.00;;;28.00;55.40;;;;;;5067463;28;20481;-70
2022/08/09 08:25:30;;;;;;;3.37;3.17;;;28.10;55.30;;;;;;5070247;28;20446;-68
2022/08/09 08:28:11;;;;;;;3.33;3.23;;;28.00;55.40;;;;;;5062988;28;20519;-71
2022/08/09 08:30:42;;;;;;;5.07;4.13;;;28.10;55.20;;;;;;5075772;28;20534;-69
2022/08/09 08:33:11;;;;;;;5.20;3.43;;;28.20;55.10;;;;;;5075058;28;20471;-69
2022/08/09 08:35:53;;;;;;;4.07;3.67;;;28.30;54.80;;;;;;5082958;28;20462;-69
2022/08/09 08:38:28;;;;;;;3.70;3.40;;;28.40;54.80;;;;;;5077861;28;20451;-69
2022/08/09 08:40:57;;;;;;;5.77;3.87;;;28.50;54.50;;;;;;5079128;28;20835;-69
2022/08/09 08:43:26;;;;;;;3.63;3.43;;;28.40;54.70;;;;;;5085545;28;20558;-69
2022/08/09 08:45:59;;;;;;;3.80;3.50;;;28.40;54.80;;;;;;5080692;28;21352;-72
2022/08/09 08:49:13;;;;;;;3.27;2.93;;;28.30;54.40;;;;;;5079465;28;20566;-72
2022/08/09 08:51:51;;;;;;;3.53;3.33;;;28.40;54.60;;;;;;5082579;28;20475;-73
2022/08/09 08:54:31;;;;;;;4.47;4.17;;;28.40;54.50;;;;;;5074559;28;20447;-72
2022/08/09 08:57:03;;;;;;;6.00;3.00;;;28.40;54.70;;;;;;5081647;28;20520;-69
2022/08/09 08:59:38;;;;;;;2.60;2.50;;;28.50;54.70;;;;;;5072037;28;20847;-69
2022/08/09 09:06:17;;;;;;;3.43;3.13;;;28.40;54.80;;;;;;5006721;28;20483;-69
2022/08/09 09:08:49;;;;;;;4.03;3.63;;;28.30;55.00;;;;;;5081745;28;20514;-68
2022/08/09 09:11:20;;;;;;;4.30;3.90;;;28.30;54.50;;;;;;5076496;28;20442;-68
2022/08/09 09:13:52;;;;;;;4.03;3.63;;;28.40;54.70;;;;;;5084477;28;20547;-68
2022/08/09 09:16:28;;;;;;;5.00;3.37;;;28.40;54.70;;;;;;5087795;28;20486;-68
2022/08/09 09:18:59;;;;;;;4.00;3.70;;;28.40;54.40;;;;;;5085389;28;20455;-68
2022/08/09 09:22:02;;;;;;;3.07;2.87;;;28.40;54.60;;;;;;5081564;28;20564;-68
2022/08/09 09:24:37;;;;;;;3.80;3.50;;;28.40;54.40;;;;;;5081969;28;20468;-69
2022/08/09 09:27:11;;;;;;;5.60;3.67;;;28.30;54.70;;;;;;5085910;28;20441;-68
2022/08/09 09:30:10;;;;;;;5.90;3.73;;;28.30;54.70;;;;;;5063327;28;20542;-69
2022/08/09 09:33:08;;;;;;;3.10;2.90;;;28.20;54.40;;;;;;5082124;28;20461;-66
2022/08/09 09:35:55;;;;;;;3.83;3.50;;;28.30;54.60;;;;;;5083068;28;20455;-66
2022/08/09 09:38:45;;;;;;;3.33;3.03;;;28.30;55.00;;;;;;5087723;28;20937;-66
2022/08/09 09:41:29;;;;;;;5.70;3.50;;;28.30;54.70;;;;;;5071029;28;20497;-66
2022/08/09 09:44:23;;;;;;;3.30;3.00;;;28.30;53.90;;;;;;5076553;28;20494;-65
2022/08/09 09:47:07;;;;;;;3.87;3.50;;;28.40;54.50;;;;;;5068689;28;20485;-66
2022/08/09 09:49:35;;;;;;;3.70;3.40;;;28.30;54.70;;;;;;5073991;28;20487;-65
2022/08/09 09:52:26;;;;;;;3.47;3.27;;;28.40;53.60;;;;;;5053081;28;20492;-66
2022/08/09 09:55:06;;;;;;;3.33;3.03;;;28.50;54.80;;;;;;5062940;28;21088;-65
2022/08/09 09:58:00;;;;;;;3.60;3.10;;;28.50;54.80;;;;;;5076000;28;20457;-66
2022/08/09 10:00:48;;;;;;;3.60;3.00;;;28.50;54.90;;;;;;5081637;28;20439;-66
2022/08/09 10:03:42;;;;;;;3.23;3.03;;;28.50;55.10;;;;;;5078053;28;20472;-65
2022/08/09 10:06:12;;;;;;;3.60;3.30;;;28.40;55.30;;;;;;5080709;28;20487;-66
2022/08/09 10:08:41;;;;;;;4.40;4.00;;;28.30;55.50;;;;;;5082284;28;20464;-65
2022/08/09 10:11:26;;;;;;;3.40;3.20;;;28.30;55.60;;;;;;5087144;28;20500;-66
2022/08/09 10:14:23;;;;;;;3.60;3.30;;;28.40;55.50;;;;;;5081650;28;21008;-65
2022/08/09 10:17:09;;;;;;;5.87;3.50;;;28.50;55.50;;;;;;5073470;28;20476;-66
2022/08/09 10:19:58;;;;;;;4.00;3.70;;;28.60;55.10;;;;;;5080685;28;20995;-66
2022/08/09 10:22:35;;;;;;;4.40;4.00;;;28.70;55.00;;;;;;5084305;28;20455;-66
2022/08/09 10:25:06;;;;;;;4.10;3.70;;;28.70;55.50;;;;;;5078983;28;20481;-67
2022/08/09 10:27:42;;;;;;;3.87;3.30;;;28.80;55.00;;;;;;5079145;28;20457;-67
2022/08/09 10:30:27;;;;;;;10.67;4.70;;;28.80;54.00;;;;;;5081161;28;20536;-68
2022/08/09 10:33:15;;;;;;;8.27;3.87;;;28.70;55.00;;;;;;5058092;28;20482;-68
2022/08/09 10:36:08;;;;;;;10.30;3.80;;;28.70;55.10;;;;;;5068107;28;20550;-67
2022/08/09 10:38:41;;;;;;;5.50;3.80;;;28.70;54.50;;;;;;5070658;28;20458;-68
2022/08/09 10:41:27;;;;;;;4.67;4.20;;;28.70;54.60;;;;;;5080188;28;20534;-66
2022/08/09 10:43:56;;;;;;;4.30;3.40;;;28.80;55.50;;;;;;5082577;28;20950;-67
2022/08/09 10:46:51;;;;;;;4.73;4.30;;;28.80;54.10;;;;;;5080446;28;20845;-66
2022/08/09 10:49:36;;;;;;;6.03;3.97;;;28.80;55.70;;;;;;5072874;28;20451;-66
2022/08/09 10:52:43;;;;;;;5.60;3.40;;;28.70;56.00;;;;;;5074766;28;20494;-67
2022/08/09 10:55:23;;;;;;;3.43;3.20;;;28.60;55.10;;;;;;5056556;28;20520;-66
2022/08/09 10:57:52;;;;;;;3.97;2.90;;;28.70;53.60;;;;;;5079021;28;20526;-66
2022/08/09 11:00:38;;;;;;;4.00;3.33;;;28.80;52.40;;;;;;5075599;28;20880;-65
2022/08/09 11:03:28;;;;;;;2.90;2.70;;;29.00;52.90;;;;;;5070234;28;20463;-66
2022/08/09 11:06:25;;;;;;;2.63;2.50;;;29.10;54.10;;;;;;5072978;28;20484;-65
2022/08/09 11:08:56;;;;;;;2.70;2.50;;;29.20;48.20;;;;;;5067657;28;20457;-66
2022/08/09 11:12:16;;;;;;;3.17;2.77;;;29.30;50.30;;;;;;5074250;28;20463;-66
2022/08/09 11:14:47;;;;;;;6.50;3.80;;;29.40;50.80;;;;;;5073267;28;20462;-65
2022/08/09 11:17:51;;;;;;;5.63;3.53;;;29.40;52.20;;;;;;5072344;28;20451;-68
2022/08/09 11:20:46;;;;;;;4.03;3.20;;;29.30;54.90;;;;;;5073216;28;20454;-69
2022/08/09 11:23:17;;;;;;;2.63;2.53;;;29.00;55.10;;;;;;5074429;28;20452;-69
2022/08/09 11:25:57;;;;;;;4.50;3.20;;;28.90;55.10;;;;;;5072385;28;20508;-69
2022/08/09 11:28:33;;;;;;;3.13;2.83;;;28.80;55.90;;;;;;5080182;28;20945;-70
2022/08/09 11:31:43;;;;;;;7.87;3.83;;;28.80;55.70;;;;;;5058128;28;20888;-70
2022/08/09 11:34:27;;;;;;;3.20;2.90;;;28.80;56.10;;;;;;5079764;28;20462;-70
2022/08/09 11:36:59;;;;;;;4.13;3.40;;;28.80;55.40;;;;;;5074613;28;20459;-70
2022/08/09 11:39:27;;;;;;;4.10;3.30;;;28.80;56.10;;;;;;5071215;28;20524;-70
2022/08/09 11:42:09;;;;;;;3.17;2.97;;;28.80;56.10;;;;;;5063977;28;20467;-70
2022/08/09 11:44:47;;;;;;;3.93;3.00;;;28.80;56.10;;;;;;5068733;28;20488;-70
2022/08/09 11:47:15;;;;;;;7.23;3.03;;;28.80;56.10;;;;;;5073717;28;20449;-70
2022/08/09 11:50:04;;;;;;;2.63;2.30;;;28.80;56.40;;;;;;5072089;28;20461;-70
2022/08/09 11:53:22;;;;;;;4.20;3.17;;;28.90;55.10;;;;;;5072856;28;20477;-71
2022/08/09 11:56:27;;;;;;;4.40;3.10;;;28.90;55.90;;;;;;5075298;28;20463;-70
2022/08/09 11:59:26;;;;;;;5.07;2.57;;;28.80;56.10;;;;;;5083430;28;20808;-70
2022/08/09 12:01:58;;;;;;;3.03;2.83;;;28.80;55.90;;;;;;5078550;28;20960;-70
2022/08/09 12:04:46;;;;;;;2.80;2.60;;;28.80;56.00;;;;;;5079157;28;20913;-70
2022/08/09 12:07:17;;;;;;;7.63;2.70;;;28.80;55.80;;;;;;5086729;28;20456;-70
2022/08/09 12:09:48;;;;;;;4.97;2.53;;;28.80;55.40;;;;;;5074352;28;20555;-71
2022/08/09 12:12:18;;;;;;;2.70;2.40;;;28.70;55.70;;;;;;5079604;28;20457;-71
2022/08/09 12:14:55;;;;;;;2.77;2.57;;;28.70;55.00;;;;;;5081814;28;20444;-69
2022/08/09 12:17:36;;;;;;;2.37;2.17;;;28.80;55.40;;;;;;5084320;28;20451;-69
2022/08/09 12:20:14;;;;;;;2.97;2.50;;;28.80;55.30;;;;;;5085260;28;20794;-66
2022/08/09 12:22:49;;;;;;;2.80;2.60;;;28.90;54.40;;;;;;5087121;28;20448;-65
2022/08/09 12:25:20;;;;;;;2.27;2.07;;;29.00;54.30;;;;;;5084371;28;20474;-66
2022/08/09 12:28:11;;;;;;;2.40;2.20;;;29.10;53.70;;;;;;5088252;28;20453;-66
2022/08/09 12:31:00;;;;;;;2.90;2.70;;;29.20;54.60;;;;;;5086847;28;20448;-66
2022/08/09 12:33:31;;;;;;;2.70;2.50;;;29.30;53.90;;;;;;5085633;28;20463;-65
2022/08/09 12:36:21;;;;;;;2.57;2.37;;;29.40;54.20;;;;;;5080593;28;20881;-65
2022/08/09 12:39:00;;;;;;;2.97;2.40;;;29.50;53.70;;;;;;5082908;28;20452;-66
2022/08/09 12:41:33;;;;;;;2.10;2.00;;;29.60;53.50;;;;;;5084967;28;20476;-66
2022/08/09 12:44:08;;;;;;;2.07;1.97;;;29.60;51.60;;;;;;5086213;28;20534;-66
2022/08/09 12:46:43;;;;;;;2.30;2.10;;;29.70;52.90;;;;;;5067341;28;21040;-66
2022/08/09 12:49:17;;;;;;;2.10;2.00;;;29.70;53.40;;;;;;5075529;28;20470;-66
2022/08/09 12:51:56;;;;;;;2.23;2.03;;;29.70;52.60;;;;;;5061515;28;20487;-65
2022/08/09 12:54:45;;;;;;;2.20;2.10;;;29.80;50.40;;;;;;5062460;28;20465;-66
2022/08/09 12:57:40;;;;;;;2.50;2.30;;;29.90;52.60;;;;;;5062912;28;20457;-66
2022/08/09 13:00:17;;;;;;;3.83;2.20;;;29.90;52.80;;;;;;5068725;28;20871;-66
2022/08/09 13:02:54;;;;;;;2.57;2.37;;;30.00;52.70;;;;;;5076980;28;20449;-66
2022/08/09 13:05:25;;;;;;;3.50;2.03;;;30.00;52.70;;;;;;5075777;28;20498;-65
2022/08/09 13:08:14;;;;;;;3.70;2.50;;;30.00;52.30;;;;;;5076064;28;20835;-66
2022/08/09 13:10:50;;;;;;;2.20;2.10;;;30.00;52.70;;;;;;5069879;28;20462;-66
2022/08/09 13:13:31;;;;;;;4.37;2.10;;;30.00;52.80;;;;;;5073907;28;20458;-66
2022/08/09 13:16:20;;;;;;;2.20;2.10;;;30.00;52.10;;;;;;5085430;28;20455;-66
2022/08/09 13:18:52;;;;;;;2.93;2.20;;;30.10;52.70;;;;;;5071537;28;20455;-66
2022/08/09 13:21:22;;;;;;;2.07;1.80;;;30.10;52.70;;;;;;5076717;28;20445;-67
2022/08/09 13:24:12;;;;;;;2.10;2.00;;;30.10;52.60;;;;;;5076797;28;20543;-68
2022/08/09 13:27:00;;;;;;;2.50;2.30;;;30.20;52.40;;;;;;5080376;28;20462;-66
2022/08/09 13:29:34;;;;;;;2.33;2.13;;;30.20;52.50;;;;;;5075804;28;20458;-67
2022/08/09 13:32:23;;;;;;;2.03;1.93;;;30.30;52.50;;;;;;5073493;28;20488;-67
2022/08/09 13:35:05;;;;;;;2.87;2.23;;;30.30;52.40;;;;;;5083559;28;20986;-67
2022/08/09 13:37:38;;;;;;;2.40;2.20;;;30.30;52.00;;;;;;5072569;28;20456;-67
2022/08/09 13:40:20;;;;;;;3.27;2.97;;;30.30;52.50;;;;;;5069876;28;20468;-67
2022/08/09 13:43:08;;;;;;;2.30;2.10;;;30.40;52.30;;;;;;5079605;28;20462;-66
2022/08/09 13:45:43;;;;;;;2.40;2.07;;;30.40;51.70;;;;;;5067241;28;20473;-66
2022/08/09 13:48:31;;;;;;;2.67;2.43;;;30.30;52.60;;;;;;5077208;28;20474;-67
2022/08/09 13:51:00;;;;;;;2.80;1.93;;;30.30;52.20;;;;;;5076363;28;20453;-67
2022/08/09 13:53:31;;;;;;;2.83;2.40;;;30.30;52.50;;;;;;5072524;28;20560;-67
2022/08/09 13:56:11;;;;;;;2.20;2.10;;;30.30;52.90;;;;;;5081237;28;20572;-67